sensor_id;sensor_type;location;lat;lon;timestamp;temperature;humidity
5938;DHT22;2994;51.220;4.412;2023-03-23T00:02:28;15.45;68.75
5938;DHT22;2994;51.220;4.412;2023-03-23T00:04:55;15.39;68.82
5938;DHT22;2994;51.220;4.412;2023-03-23T00:07:22;15.42;69.28
5938;DHT22;2994;51.220;4.412;2023-03-23T00:09:50;15.29;69.97
5938;DHT22;2994;51.220;4.412;2023-03-23T00:12:24;15.10;70.68
5938;DHT22;2994;51.220;4.412;2023-03-23T00:14:55;15.23;70.37
5938;DHT22;2994;51.220;4.412;2023-03-23T00:17:20;15.31;70.24
5938;DHT22;2994;51.220;4.412;2023-03-23T00:19:46;15.22;70.77
5938;DHT22;2994;51.220;4.412;2023-03-23T00:22:13;15.36;70.18
5938;DHT22;2994;51.220;4.412;2023-03-23T00:24:39;15.18;70.68
5938;DHT22;2994;51.220;4.412;2023-03-23T00:27:04;15.25;70.34
5938;DHT22;2994;51.220;4.412;2023-03-23T00:29:30;15.31;70.19
5938;DHT22;2994;51.220;4.412;2023-03-23T00:31:57;15.31;69.94
5938;DHT22;2994;51.220;4.412;2023-03-23T00:34:23;15.28;70.16
5938;DHT22;2994;51.220;4.412;2023-03-23T00:36:52;15.43;69.61
5938;DHT22;2994;51.220;4.412;2023-03-23T00:39:22;15.25;70.61
5938;DHT22;2994;51.220;4.412;2023-03-23T00:41:49;15.15;71.13
5938;DHT22;2994;51.220;4.412;2023-03-23T00:44:17;15.46;70.10
5938;DHT22;2994;51.220;4.412;2023-03-23T00:46:47;15.42;70.04
5938;DHT22;2994;51.220;4.412;2023-03-23T00:49:16;15.39;70.31
5938;DHT22;2994;51.220;4.412;2023-03-23T00:51:42;15.34;70.67
5938;DHT22;2994;51.220;4.412;2023-03-23T00:54:10;15.30;71.31
5938;DHT22;2994;51.220;4.412;2023-03-23T00:56:36;15.23;71.37
5938;DHT22;2994;51.220;4.412;2023-03-23T00:59:02;15.41;70.35
5938;DHT22;2994;51.220;4.412;2023-03-23T01:01:28;15.39;70.64
5938;DHT22;2994;51.220;4.412;2023-03-23T01:03:54;15.40;70.48
5938;DHT22;2994;51.220;4.412;2023-03-23T01:06:33;15.51;69.98
5938;DHT22;2994;51.220;4.412;2023-03-23T01:09:01;15.49;70.13
5938;DHT22;2994;51.220;4.412;2023-03-23T01:11:27;15.41;70.53
5938;DHT22;2994;51.220;4.412;2023-03-23T01:13:53;15.42;70.42
5938;DHT22;2994;51.220;4.412;2023-03-23T01:16:18;15.44;70.25
5938;DHT22;2994;51.220;4.412;2023-03-23T01:18:44;15.43;70.27
5938;DHT22;2994;51.220;4.412;2023-03-23T01:21:12;15.51;70.26
5938;DHT22;2994;51.220;4.412;2023-03-23T01:23:38;15.36;70.61
5938;DHT22;2994;51.220;4.412;2023-03-23T01:26:13;15.40;70.54
5938;DHT22;2994;51.220;4.412;2023-03-23T01:28:39;15.48;70.11
5938;DHT22;2994;51.220;4.412;2023-03-23T01:31:08;15.47;69.84
5938;DHT22;2994;51.220;4.412;2023-03-23T01:33:33;15.48;69.98
5938;DHT22;2994;51.220;4.412;2023-03-23T01:36:04;15.49;69.77
5938;DHT22;2994;51.220;4.412;2023-03-23T01:38:30;15.43;70.35
5938;DHT22;2994;51.220;4.412;2023-03-23T01:40:56;15.56;69.63
5938;DHT22;2994;51.220;4.412;2023-03-23T01:43:21;15.45;70.07
5938;DHT22;2994;51.220;4.412;2023-03-23T01:45:47;15.41;70.06
5938;DHT22;2994;51.220;4.412;2023-03-23T01:48:21;15.40;70.31
5938;DHT22;2994;51.220;4.412;2023-03-23T01:50:53;15.46;70.09
5938;DHT22;2994;51.220;4.412;2023-03-23T01:53:22;15.39;70.28
5938;DHT22;2994;51.220;4.412;2023-03-23T01:55:52;15.43;69.99
5938;DHT22;2994;51.220;4.412;2023-03-23T01:58:21;15.43;70.27
5938;DHT22;2994;51.220;4.412;2023-03-23T02:00:51;15.36;70.45
5938;DHT22;2994;51.220;4.412;2023-03-23T02:03:19;15.40;70.22
5938;DHT22;2994;51.220;4.412;2023-03-23T02:05:45;15.51;69.97
5938;DHT22;2994;51.220;4.412;2023-03-23T02:08:11;15.52;69.90
5938;DHT22;2994;51.220;4.412;2023-03-23T02:10:39;15.42;70.61
5938;DHT22;2994;51.220;4.412;2023-03-23T02:13:08;15.51;70.05
5938;DHT22;2994;51.220;4.412;2023-03-23T02:15:47;15.40;70.52
5938;DHT22;2994;51.220;4.412;2023-03-23T02:26:38;15.48;70.01
5938;DHT22;2994;51.220;4.412;2023-03-23T02:32:29;15.36;69.83
5938;DHT22;2994;51.220;4.412;2023-03-23T02:35:00;15.40;69.61
5938;DHT22;2994;51.220;4.412;2023-03-23T02:37:32;15.34;69.56
5938;DHT22;2994;51.220;4.412;2023-03-23T02:40:07;15.23;70.13
5938;DHT22;2994;51.220;4.412;2023-03-23T02:42:37;15.34;69.82
5938;DHT22;2994;51.220;4.412;2023-03-23T02:45:07;15.28;69.68
5938;DHT22;2994;51.220;4.412;2023-03-23T02:47:36;15.21;69.74
5938;DHT22;2994;51.220;4.412;2023-03-23T02:50:03;15.14;70.46
5938;DHT22;2994;51.220;4.412;2023-03-23T02:52:31;15.24;69.64
5938;DHT22;2994;51.220;4.412;2023-03-23T02:54:58;15.13;69.96
5938;DHT22;2994;51.220;4.412;2023-03-23T02:57:25;15.13;69.83
5938;DHT22;2994;51.220;4.412;2023-03-23T02:59:51;15.24;69.33
5938;DHT22;2994;51.220;4.412;2023-03-23T03:02:37;15.38;68.54
5938;DHT22;2994;51.220;4.412;2023-03-23T03:07:42;15.22;68.88
5938;DHT22;2994;51.220;4.412;2023-03-23T03:10:17;15.07;69.01
5938;DHT22;2994;51.220;4.412;2023-03-23T03:13:03;15.12;69.00
5938;DHT22;2994;51.220;4.412;2023-03-23T03:15:36;15.31;68.08
5938;DHT22;2994;51.220;4.412;2023-03-23T03:20:39;15.31;68.26
5938;DHT22;2994;51.220;4.412;2023-03-23T03:23:06;15.26;67.71
5938;DHT22;2994;51.220;4.412;2023-03-23T03:25:35;15.34;67.12
5938;DHT22;2994;51.220;4.412;2023-03-23T03:28:02;15.25;67.73
5938;DHT22;2994;51.220;4.412;2023-03-23T03:30:30;15.30;67.72
5938;DHT22;2994;51.220;4.412;2023-03-23T03:32:57;15.28;67.65
5938;DHT22;2994;51.220;4.412;2023-03-23T03:35:26;15.36;67.23
5938;DHT22;2994;51.220;4.412;2023-03-23T03:37:52;15.45;66.98
5938;DHT22;2994;51.220;4.412;2023-03-23T03:40:20;15.38;67.30
5938;DHT22;2994;51.220;4.412;2023-03-23T03:42:47;15.33;67.20
5938;DHT22;2994;51.220;4.412;2023-03-23T03:45:16;15.34;67.25
5938;DHT22;2994;51.220;4.412;2023-03-23T03:47:41;15.39;67.06
5938;DHT22;2994;51.220;4.412;2023-03-23T03:50:07;15.33;67.46
5938;DHT22;2994;51.220;4.412;2023-03-23T03:52:34;15.24;67.45
5938;DHT22;2994;51.220;4.412;2023-03-23T03:55:00;15.19;67.91
5938;DHT22;2994;51.220;4.412;2023-03-23T03:57:26;15.22;68.27
5938;DHT22;2994;51.220;4.412;2023-03-23T03:59:51;15.28;68.08
5938;DHT22;2994;51.220;4.412;2023-03-23T04:02:18;15.17;68.56
5938;DHT22;2994;51.220;4.412;2023-03-23T04:04:49;15.27;68.45
5938;DHT22;2994;51.220;4.412;2023-03-23T04:07:15;15.39;67.69
5938;DHT22;2994;51.220;4.412;2023-03-23T04:09:42;15.38;67.63
5938;DHT22;2994;51.220;4.412;2023-03-23T04:12:08;15.39;67.75
5938;DHT22;2994;51.220;4.412;2023-03-23T04:14:34;15.43;67.75
5938;DHT22;2994;51.220;4.412;2023-03-23T04:16:59;15.25;68.39
5938;DHT22;2994;51.220;4.412;2023-03-23T04:19:25;15.16;68.46
5938;DHT22;2994;51.220;4.412;2023-03-23T04:21:54;15.36;67.93
5938;DHT22;2994;51.220;4.412;2023-03-23T04:24:21;15.28;68.06
5938;DHT22;2994;51.220;4.412;2023-03-23T04:26:49;15.36;67.77
5938;DHT22;2994;51.220;4.412;2023-03-23T04:29:17;15.18;68.54
5938;DHT22;2994;51.220;4.412;2023-03-23T04:31:44;15.18;68.70
5938;DHT22;2994;51.220;4.412;2023-03-23T04:34:11;15.16;68.54
5938;DHT22;2994;51.220;4.412;2023-03-23T04:36:38;15.09;68.97
5938;DHT22;2994;51.220;4.412;2023-03-23T04:39:04;15.15;68.75
5938;DHT22;2994;51.220;4.412;2023-03-23T04:41:32;15.23;68.66
5938;DHT22;2994;51.220;4.412;2023-03-23T04:43:57;15.12;68.80
5938;DHT22;2994;51.220;4.412;2023-03-23T04:46:28;15.02;69.26
5938;DHT22;2994;51.220;4.412;2023-03-23T04:48:57;15.18;69.00
5938;DHT22;2994;51.220;4.412;2023-03-23T04:51:28;15.22;68.85
5938;DHT22;2994;51.220;4.412;2023-03-23T04:53:54;15.22;68.40
5938;DHT22;2994;51.220;4.412;2023-03-23T04:56:20;15.28;68.15
5938;DHT22;2994;51.220;4.412;2023-03-23T04:58:46;15.25;68.33
5938;DHT22;2994;51.220;4.412;2023-03-23T05:01:12;15.25;68.36
5938;DHT22;2994;51.220;4.412;2023-03-23T05:03:40;15.32;67.94
5938;DHT22;2994;51.220;4.412;2023-03-23T05:06:05;15.15;68.30
5938;DHT22;2994;51.220;4.412;2023-03-23T05:08:31;15.02;68.55
5938;DHT22;2994;51.220;4.412;2023-03-23T05:10:59;15.08;68.35
5938;DHT22;2994;51.220;4.412;2023-03-23T05:13:24;15.16;68.19
5938;DHT22;2994;51.220;4.412;2023-03-23T05:15:50;15.08;68.30
5938;DHT22;2994;51.220;4.412;2023-03-23T05:18:16;15.34;66.75
5938;DHT22;2994;51.220;4.412;2023-03-23T05:20:42;15.30;67.10
5938;DHT22;2994;51.220;4.412;2023-03-23T05:23:09;15.27;67.43
5938;DHT22;2994;51.220;4.412;2023-03-23T05:25:35;15.27;67.14
5938;DHT22;2994;51.220;4.412;2023-03-23T05:28:06;15.22;67.62
5938;DHT22;2994;51.220;4.412;2023-03-23T05:30:31;15.07;67.70
5938;DHT22;2994;51.220;4.412;2023-03-23T05:32:57;14.98;68.18
5938;DHT22;2994;51.220;4.412;2023-03-23T05:35:22;15.11;67.87
5938;DHT22;2994;51.220;4.412;2023-03-23T05:37:48;15.09;67.36
5938;DHT22;2994;51.220;4.412;2023-03-23T05:40:13;15.14;67.39
5938;DHT22;2994;51.220;4.412;2023-03-23T05:42:40;15.19;67.30
5938;DHT22;2994;51.220;4.412;2023-03-23T05:45:13;15.17;67.15
5938;DHT22;2994;51.220;4.412;2023-03-23T05:47:40;15.15;67.43
5938;DHT22;2994;51.220;4.412;2023-03-23T05:50:07;15.03;67.49
5938;DHT22;2994;51.220;4.412;2023-03-23T05:52:34;15.09;68.02
5938;DHT22;2994;51.220;4.412;2023-03-23T05:55:03;15.04;68.19
5938;DHT22;2994;51.220;4.412;2023-03-23T05:57:29;15.14;68.07
5938;DHT22;2994;51.220;4.412;2023-03-23T05:59:55;15.08;68.46
5938;DHT22;2994;51.220;4.412;2023-03-23T06:02:23;15.08;68.70
5938;DHT22;2994;51.220;4.412;2023-03-23T06:04:50;15.15;68.88
5938;DHT22;2994;51.220;4.412;2023-03-23T06:07:15;15.03;69.51
5938;DHT22;2994;51.220;4.412;2023-03-23T06:09:41;15.01;70.26
5938;DHT22;2994;51.220;4.412;2023-03-23T06:12:08;14.89;71.06
5938;DHT22;2994;51.220;4.412;2023-03-23T06:14:35;15.00;71.21
5938;DHT22;2994;51.220;4.412;2023-03-23T06:17:00;15.03;71.20
5938;DHT22;2994;51.220;4.412;2023-03-23T06:19:26;15.08;71.10
5938;DHT22;2994;51.220;4.412;2023-03-23T06:21:53;14.91;72.06
5938;DHT22;2994;51.220;4.412;2023-03-23T06:24:19;15.03;71.78
5938;DHT22;2994;51.220;4.412;2023-03-23T06:26:45;14.99;72.19
5938;DHT22;2994;51.220;4.412;2023-03-23T06:29:10;14.91;72.99
5938;DHT22;2994;51.220;4.412;2023-03-23T06:31:42;14.69;76.08
5938;DHT22;2994;51.220;4.412;2023-03-23T06:34:08;14.23;79.60
5938;DHT22;2994;51.220;4.412;2023-03-23T06:36:35;14.25;79.66
5938;DHT22;2994;51.220;4.412;2023-03-23T06:39:04;14.07;78.82
5938;DHT22;2994;51.220;4.412;2023-03-23T06:41:33;14.05;78.58
5938;DHT22;2994;51.220;4.412;2023-03-23T06:43:59;13.98;76.89
5938;DHT22;2994;51.220;4.412;2023-03-23T06:46:28;14.01;76.46
5938;DHT22;2994;51.220;4.412;2023-03-23T06:48:54;13.98;75.97
5938;DHT22;2994;51.220;4.412;2023-03-23T06:51:20;14.00;75.71
5938;DHT22;2994;51.220;4.412;2023-03-23T06:53:46;14.04;75.25
5938;DHT22;2994;51.220;4.412;2023-03-23T06:56:11;14.01;75.68
5938;DHT22;2994;51.220;4.412;2023-03-23T06:58:38;13.90;75.78
5938;DHT22;2994;51.220;4.412;2023-03-23T07:01:04;13.94;75.24
5938;DHT22;2994;51.220;4.412;2023-03-23T07:03:30;13.86;75.74
5938;DHT22;2994;51.220;4.412;2023-03-23T07:05:56;13.83;76.28
5938;DHT22;2994;51.220;4.412;2023-03-23T07:08:22;13.86;75.77
5938;DHT22;2994;51.220;4.412;2023-03-23T07:10:50;13.92;75.67
5938;DHT22;2994;51.220;4.412;2023-03-23T07:13:17;13.98;75.15
5938;DHT22;2994;51.220;4.412;2023-03-23T07:15:42;13.82;75.40
5938;DHT22;2994;51.220;4.412;2023-03-23T07:18:09;13.86;75.24
5938;DHT22;2994;51.220;4.412;2023-03-23T07:20:35;13.94;74.86
5938;DHT22;2994;51.220;4.412;2023-03-23T07:23:01;13.96;74.73
5938;DHT22;2994;51.220;4.412;2023-03-23T07:25:27;13.97;74.72
5938;DHT22;2994;51.220;4.412;2023-03-23T07:27:52;14.01;74.13
5938;DHT22;2994;51.220;4.412;2023-03-23T07:30:18;13.74;75.40
5938;DHT22;2994;51.220;4.412;2023-03-23T07:32:43;13.66;75.47
5938;DHT22;2994;51.220;4.412;2023-03-23T07:35:09;13.76;74.89
5938;DHT22;2994;51.220;4.412;2023-03-23T07:37:35;13.74;74.98
5938;DHT22;2994;51.220;4.412;2023-03-23T07:40:01;13.81;75.00
5938;DHT22;2994;51.220;4.412;2023-03-23T07:42:43;13.88;74.67
5938;DHT22;2994;51.220;4.412;2023-03-23T07:45:10;13.84;74.67
5938;DHT22;2994;51.220;4.412;2023-03-23T07:47:37;13.89;74.16
5938;DHT22;2994;51.220;4.412;2023-03-23T07:50:03;13.84;73.95
5938;DHT22;2994;51.220;4.412;2023-03-23T07:52:28;13.84;73.72
5938;DHT22;2994;51.220;4.412;2023-03-23T07:54:55;13.75;73.90
5938;DHT22;2994;51.220;4.412;2023-03-23T07:57:20;13.80;73.34
5938;DHT22;2994;51.220;4.412;2023-03-23T07:59:47;13.89;72.89
5938;DHT22;2994;51.220;4.412;2023-03-23T08:02:12;13.83;73.58
5938;DHT22;2994;51.220;4.412;2023-03-23T08:04:38;13.82;73.64
5938;DHT22;2994;51.220;4.412;2023-03-23T08:07:04;13.82;73.49
5938;DHT22;2994;51.220;4.412;2023-03-23T08:09:30;13.92;72.93
5938;DHT22;2994;51.220;4.412;2023-03-23T08:11:56;13.96;72.69
5938;DHT22;2994;51.220;4.412;2023-03-23T08:14:21;13.95;72.67
5938;DHT22;2994;51.220;4.412;2023-03-23T08:16:48;13.95;72.48
5938;DHT22;2994;51.220;4.412;2023-03-23T08:19:13;13.94;72.87
5938;DHT22;2994;51.220;4.412;2023-03-23T08:21:39;14.10;71.95
5938;DHT22;2994;51.220;4.412;2023-03-23T08:24:05;14.09;72.42
5938;DHT22;2994;51.220;4.412;2023-03-23T08:26:30;14.10;72.96
5938;DHT22;2994;51.220;4.412;2023-03-23T08:28:56;14.19;72.54
5938;DHT22;2994;51.220;4.412;2023-03-23T08:31:22;14.27;71.84
5938;DHT22;2994;51.220;4.412;2023-03-23T08:33:48;14.18;72.58
5938;DHT22;2994;51.220;4.412;2023-03-23T08:36:14;14.37;71.91
5938;DHT22;2994;51.220;4.412;2023-03-23T08:38:39;14.43;72.09
5938;DHT22;2994;51.220;4.412;2023-03-23T08:41:05;14.38;72.41
5938;DHT22;2994;51.220;4.412;2023-03-23T08:43:32;14.42;72.36
5938;DHT22;2994;51.220;4.412;2023-03-23T08:45:58;14.57;71.69
5938;DHT22;2994;51.220;4.412;2023-03-23T08:48:24;14.66;71.55
5938;DHT22;2994;51.220;4.412;2023-03-23T08:50:50;14.84;70.89
5938;DHT22;2994;51.220;4.412;2023-03-23T08:53:17;14.93;70.58
5938;DHT22;2994;51.220;4.412;2023-03-23T08:55:43;14.93;70.59
5938;DHT22;2994;51.220;4.412;2023-03-23T08:58:09;14.88;70.42
5938;DHT22;2994;51.220;4.412;2023-03-23T09:00:35;14.97;70.55
5938;DHT22;2994;51.220;4.412;2023-03-23T09:03:00;15.10;69.93
5938;DHT22;2994;51.220;4.412;2023-03-23T09:05:27;15.12;69.93
5938;DHT22;2994;51.220;4.412;2023-03-23T09:07:55;15.27;69.00
5938;DHT22;2994;51.220;4.412;2023-03-23T09:10:22;15.73;68.23
5938;DHT22;2994;51.220;4.412;2023-03-23T09:12:49;15.67;67.72
5938;DHT22;2994;51.220;4.412;2023-03-23T09:15:18;15.39;68.58
5938;DHT22;2994;51.220;4.412;2023-03-23T09:17:46;15.56;68.17
5938;DHT22;2994;51.220;4.412;2023-03-23T09:20:13;15.68;67.86
5938;DHT22;2994;51.220;4.412;2023-03-23T09:22:40;15.85;66.97
5938;DHT22;2994;51.220;4.412;2023-03-23T09:25:07;15.88;67.94
5938;DHT22;2994;51.220;4.412;2023-03-23T09:27:34;15.83;66.88
5938;DHT22;2994;51.220;4.412;2023-03-23T09:30:04;15.82;67.02
5938;DHT22;2994;51.220;4.412;2023-03-23T09:32:34;15.76;65.85
5938;DHT22;2994;51.220;4.412;2023-03-23T09:35:01;15.63;67.07
5938;DHT22;2994;51.220;4.412;2023-03-23T09:37:27;15.73;66.74
5938;DHT22;2994;51.220;4.412;2023-03-23T09:39:53;15.46;67.55
5938;DHT22;2994;51.220;4.412;2023-03-23T09:43:02;15.52;67.52
5938;DHT22;2994;51.220;4.412;2023-03-23T09:45:58;15.44;67.42
5938;DHT22;2994;51.220;4.412;2023-03-23T09:53:52;15.55;67.16
5938;DHT22;2994;51.220;4.412;2023-03-23T09:56:19;15.77;66.46
5938;DHT22;2994;51.220;4.412;2023-03-23T09:58:53;15.62;67.37
5938;DHT22;2994;51.220;4.412;2023-03-23T10:01:40;15.52;67.67
5938;DHT22;2994;51.220;4.412;2023-03-23T10:05:04;15.46;67.56
5938;DHT22;2994;51.220;4.412;2023-03-23T10:07:24;15.45;67.43
5938;DHT22;2994;51.220;4.412;2023-03-23T10:09:59;15.44;67.20
5938;DHT22;2994;51.220;4.412;2023-03-23T10:12:36;15.60;67.07
5938;DHT22;2994;51.220;4.412;2023-03-23T10:20:54;15.83;67.64
5938;DHT22;2994;51.220;4.412;2023-03-23T10:28:50;15.93;67.47
5938;DHT22;2994;51.220;4.412;2023-03-23T10:31:27;15.91;67.32
5938;DHT22;2994;51.220;4.412;2023-03-23T10:33:57;16.03;67.04
5938;DHT22;2994;51.220;4.412;2023-03-23T10:36:31;15.95;67.16
5938;DHT22;2994;51.220;4.412;2023-03-23T10:39:12;16.06;67.44
5938;DHT22;2994;51.220;4.412;2023-03-23T10:41:38;15.96;67.54
5938;DHT22;2994;51.220;4.412;2023-03-23T10:44:21;15.89;67.31
5938;DHT22;2994;51.220;4.412;2023-03-23T10:49:30;16.13;66.12
5938;DHT22;2994;51.220;4.412;2023-03-23T10:52:35;16.04;65.94
5938;DHT22;2994;51.220;4.412;2023-03-23T10:55:06;16.06;65.72
5938;DHT22;2994;51.220;4.412;2023-03-23T10:57:34;16.20;65.17
5938;DHT22;2994;51.220;4.412;2023-03-23T11:00:03;16.18;64.69
5938;DHT22;2994;51.220;4.412;2023-03-23T11:02:39;15.99;64.99
5938;DHT22;2994;51.220;4.412;2023-03-23T11:08:23;16.22;65.27
5938;DHT22;2994;51.220;4.412;2023-03-23T11:10:56;16.42;64.68
5938;DHT22;2994;51.220;4.412;2023-03-23T11:13:27;16.46;64.68
5938;DHT22;2994;51.220;4.412;2023-03-23T11:15:56;16.27;65.24
5938;DHT22;2994;51.220;4.412;2023-03-23T11:18:33;16.48;64.56
5938;DHT22;2994;51.220;4.412;2023-03-23T11:21:02;16.48;63.91
5938;DHT22;2994;51.220;4.412;2023-03-23T11:23:32;16.61;63.92
5938;DHT22;2994;51.220;4.412;2023-03-23T11:28:32;16.92;63.80
5938;DHT22;2994;51.220;4.412;2023-03-23T11:31:01;16.82;63.86
5938;DHT22;2994;51.220;4.412;2023-03-23T11:33:47;16.87;62.53
5938;DHT22;2994;51.220;4.412;2023-03-23T11:36:13;16.92;61.96
5938;DHT22;2994;51.220;4.412;2023-03-23T11:38:40;16.75;62.39
5938;DHT22;2994;51.220;4.412;2023-03-23T11:41:10;16.72;62.30
5938;DHT22;2994;51.220;4.412;2023-03-23T11:43:39;16.78;62.29
5938;DHT22;2994;51.220;4.412;2023-03-23T11:46:15;16.64;62.92
5938;DHT22;2994;51.220;4.412;2023-03-23T11:48:54;16.79;62.63
5938;DHT22;2994;51.220;4.412;2023-03-23T11:54:15;17.02;62.25
5938;DHT22;2994;51.220;4.412;2023-03-23T11:56:44;16.81;62.60
5938;DHT22;2994;51.220;4.412;2023-03-23T11:59:15;17.18;60.94
5938;DHT22;2994;51.220;4.412;2023-03-23T12:01:58;16.99;61.50
5938;DHT22;2994;51.220;4.412;2023-03-23T12:07:47;17.24;61.09
5938;DHT22;2994;51.220;4.412;2023-03-23T12:18:44;17.35;59.67
5938;DHT22;2994;51.220;4.412;2023-03-23T12:26:28;17.21;61.00
5938;DHT22;2994;51.220;4.412;2023-03-23T12:29:25;17.24;60.70
5938;DHT22;2994;51.220;4.412;2023-03-23T12:44:52;15.78;72.03
5938;DHT22;2994;51.220;4.412;2023-03-23T12:47:23;15.81;72.74
5938;DHT22;2994;51.220;4.412;2023-03-23T12:50:00;15.88;72.02
5938;DHT22;2994;51.220;4.412;2023-03-23T12:52:50;16.03;71.82
5938;DHT22;2994;51.220;4.412;2023-03-23T12:55:47;16.14;72.02
5938;DHT22;2994;51.220;4.412;2023-03-23T12:58:25;16.15;71.65
5938;DHT22;2994;51.220;4.412;2023-03-23T13:01:06;16.20;71.32
5938;DHT22;2994;51.220;4.412;2023-03-23T13:03:44;16.27;71.37
5938;DHT22;2994;51.220;4.412;2023-03-23T13:06:31;16.34;71.54
5938;DHT22;2994;51.220;4.412;2023-03-23T13:09:12;16.30;71.76
5938;DHT22;2994;51.220;4.412;2023-03-23T13:11:41;16.36;71.63
5938;DHT22;2994;51.220;4.412;2023-03-23T13:14:42;16.41;71.41
5938;DHT22;2994;51.220;4.412;2023-03-23T13:23:23;16.34;72.14
5938;DHT22;2994;51.220;4.412;2023-03-23T13:34:02;16.58;67.43
5938;DHT22;2994;51.220;4.412;2023-03-23T13:36:35;16.51;66.76
5938;DHT22;2994;51.220;4.412;2023-03-23T13:39:04;16.31;66.80
5938;DHT22;2994;51.220;4.412;2023-03-23T13:41:33;16.34;65.81
5938;DHT22;2994;51.220;4.412;2023-03-23T13:44:26;16.43;66.04
5938;DHT22;2994;51.220;4.412;2023-03-23T13:47:07;16.21;65.88
5938;DHT22;2994;51.220;4.412;2023-03-23T13:49:44;16.41;66.36
5938;DHT22;2994;51.220;4.412;2023-03-23T13:52:24;16.58;66.06
5938;DHT22;2994;51.220;4.412;2023-03-23T13:54:52;16.42;66.62
5938;DHT22;2994;51.220;4.412;2023-03-23T13:57:49;16.48;66.25
5938;DHT22;2994;51.220;4.412;2023-03-23T14:03:25;16.88;65.54
5938;DHT22;2994;51.220;4.412;2023-03-23T14:10:56;17.01;65.15
5938;DHT22;2994;51.220;4.412;2023-03-23T14:16:00;16.78;66.11
5938;DHT22;2994;51.220;4.412;2023-03-23T14:18:30;16.98;65.66
5938;DHT22;2994;51.220;4.412;2023-03-23T14:20:57;16.71;66.21
5938;DHT22;2994;51.220;4.412;2023-03-23T14:23:23;16.82;64.67
5938;DHT22;2994;51.220;4.412;2023-03-23T14:26:00;16.66;64.73
5938;DHT22;2994;51.220;4.412;2023-03-23T14:28:32;16.71;64.15
5938;DHT22;2994;51.220;4.412;2023-03-23T14:31:01;16.66;64.15
5938;DHT22;2994;51.220;4.412;2023-03-23T14:33:26;16.47;64.73
5938;DHT22;2994;51.220;4.412;2023-03-23T14:35:53;16.47;65.67
5938;DHT22;2994;51.220;4.412;2023-03-23T14:38:21;16.48;66.33
5938;DHT22;2994;51.220;4.412;2023-03-23T14:41:00;16.59;66.57
5938;DHT22;2994;51.220;4.412;2023-03-23T14:43:33;16.70;66.64
5938;DHT22;2994;51.220;4.412;2023-03-23T14:46:01;16.72;66.98
5938;DHT22;2994;51.220;4.412;2023-03-23T14:48:27;16.65;67.23
5938;DHT22;2994;51.220;4.412;2023-03-23T14:50:58;16.71;67.20
5938;DHT22;2994;51.220;4.412;2023-03-23T14:53:40;16.79;66.79
5938;DHT22;2994;51.220;4.412;2023-03-23T14:56:13;16.89;67.02
5938;DHT22;2994;51.220;4.412;2023-03-23T14:58:44;16.89;67.50
5938;DHT22;2994;51.220;4.412;2023-03-23T15:01:11;17.00;67.07
5938;DHT22;2994;51.220;4.412;2023-03-23T15:03:43;16.95;66.85
5938;DHT22;2994;51.220;4.412;2023-03-23T15:06:15;17.05;66.71
5938;DHT22;2994;51.220;4.412;2023-03-23T15:08:41;17.23;66.14
5938;DHT22;2994;51.220;4.412;2023-03-23T15:11:29;17.15;66.43
5938;DHT22;2994;51.220;4.412;2023-03-23T15:13:59;17.26;65.88
5938;DHT22;2994;51.220;4.412;2023-03-23T15:16:32;16.96;66.70
5938;DHT22;2994;51.220;4.412;2023-03-23T15:19:05;16.96;66.30
5938;DHT22;2994;51.220;4.412;2023-03-23T15:21:45;17.07;66.12
5938;DHT22;2994;51.220;4.412;2023-03-23T15:24:25;17.07;66.51
5938;DHT22;2994;51.220;4.412;2023-03-23T15:26:52;16.90;66.43
5938;DHT22;2994;51.220;4.412;2023-03-23T15:29:21;16.94;66.11
5938;DHT22;2994;51.220;4.412;2023-03-23T15:31:53;17.06;66.65
5938;DHT22;2994;51.220;4.412;2023-03-23T15:34:32;17.15;66.55
5938;DHT22;2994;51.220;4.412;2023-03-23T15:37:01;17.30;66.27
5938;DHT22;2994;51.220;4.412;2023-03-23T15:39:28;17.14;66.07
5938;DHT22;2994;51.220;4.412;2023-03-23T15:41:54;17.24;65.96
5938;DHT22;2994;51.220;4.412;2023-03-23T15:44:28;17.29;65.81
5938;DHT22;2994;51.220;4.412;2023-03-23T15:47:03;17.33;65.87
5938;DHT22;2994;51.220;4.412;2023-03-23T15:49:29;17.36;65.27
5938;DHT22;2994;51.220;4.412;2023-03-23T15:51:55;17.51;65.05
5938;DHT22;2994;51.220;4.412;2023-03-23T15:54:20;17.53;65.18
5938;DHT22;2994;51.220;4.412;2023-03-23T15:56:46;17.52;64.64
5938;DHT22;2994;51.220;4.412;2023-03-23T15:59:12;17.37;64.95
5938;DHT22;2994;51.220;4.412;2023-03-23T16:01:39;17.21;64.85
5938;DHT22;2994;51.220;4.412;2023-03-23T16:04:12;16.89;65.40
5938;DHT22;2994;51.220;4.412;2023-03-23T16:06:39;17.04;65.09
5938;DHT22;2994;51.220;4.412;2023-03-23T16:09:06;16.87;65.63
5938;DHT22;2994;51.220;4.412;2023-03-23T16:11:33;16.96;65.37
5938;DHT22;2994;51.220;4.412;2023-03-23T16:13:59;17.08;65.62
5938;DHT22;2994;51.220;4.412;2023-03-23T16:16:34;17.19;65.31
5938;DHT22;2994;51.220;4.412;2023-03-23T16:19:00;17.18;65.17
5938;DHT22;2994;51.220;4.412;2023-03-23T16:21:26;17.10;64.95
5938;DHT22;2994;51.220;4.412;2023-03-23T16:23:52;16.86;65.49
5938;DHT22;2994;51.220;4.412;2023-03-23T16:26:18;16.80;66.04
5938;DHT22;2994;51.220;4.412;2023-03-23T16:28:44;16.66;67.17
5938;DHT22;2994;51.220;4.412;2023-03-23T16:31:10;16.57;68.24
5938;DHT22;2994;51.220;4.412;2023-03-23T16:33:35;16.70;68.27
5938;DHT22;2994;51.220;4.412;2023-03-23T16:36:01;16.71;68.60
5938;DHT22;2994;51.220;4.412;2023-03-23T16:38:27;16.77;68.47
5938;DHT22;2994;51.220;4.412;2023-03-23T16:40:52;16.70;68.87
5938;DHT22;2994;51.220;4.412;2023-03-23T16:43:18;16.73;68.76
5938;DHT22;2994;51.220;4.412;2023-03-23T16:45:44;16.66;69.27
5938;DHT22;2994;51.220;4.412;2023-03-23T16:48:12;16.66;69.47
5938;DHT22;2994;51.220;4.412;2023-03-23T16:50:38;16.65;69.64
5938;DHT22;2994;51.220;4.412;2023-03-23T16:53:06;16.64;69.87
5938;DHT22;2994;51.220;4.412;2023-03-23T16:55:32;16.62;69.63
5938;DHT22;2994;51.220;4.412;2023-03-23T16:57:58;16.66;69.78
5938;DHT22;2994;51.220;4.412;2023-03-23T17:00:24;16.67;69.61
5938;DHT22;2994;51.220;4.412;2023-03-23T17:02:52;16.64;69.99
5938;DHT22;2994;51.220;4.412;2023-03-23T17:05:22;16.65;69.77
5938;DHT22;2994;51.220;4.412;2023-03-23T17:07:47;16.72;69.58
5938;DHT22;2994;51.220;4.412;2023-03-23T17:10:14;16.70;69.51
5938;DHT22;2994;51.220;4.412;2023-03-23T17:12:40;16.75;69.34
5938;DHT22;2994;51.220;4.412;2023-03-23T17:15:07;16.69;69.42
5938;DHT22;2994;51.220;4.412;2023-03-23T17:17:33;16.69;69.15
5938;DHT22;2994;51.220;4.412;2023-03-23T17:19:59;16.73;68.75
5938;DHT22;2994;51.220;4.412;2023-03-23T17:22:25;16.76;68.87
5938;DHT22;2994;51.220;4.412;2023-03-23T17:24:50;16.76;68.46
5938;DHT22;2994;51.220;4.412;2023-03-23T17:27:18;16.64;68.26
5938;DHT22;2994;51.220;4.412;2023-03-23T17:29:44;16.64;67.14
5938;DHT22;2994;51.220;4.412;2023-03-23T17:32:10;16.72;66.78
5938;DHT22;2994;51.220;4.412;2023-03-23T17:34:36;16.65;66.46
5938;DHT22;2994;51.220;4.412;2023-03-23T17:37:02;16.54;66.37
5938;DHT22;2994;51.220;4.412;2023-03-23T17:39:29;16.55;66.77
5938;DHT22;2994;51.220;4.412;2023-03-23T17:41:56;16.57;66.35
5938;DHT22;2994;51.220;4.412;2023-03-23T17:44:21;16.44;66.73
5938;DHT22;2994;51.220;4.412;2023-03-23T17:46:47;16.62;65.94
5938;DHT22;2994;51.220;4.412;2023-03-23T17:49:12;16.45;66.17
5938;DHT22;2994;51.220;4.412;2023-03-23T17:51:38;16.60;65.72
5938;DHT22;2994;51.220;4.412;2023-03-23T17:54:03;16.72;64.79
5938;DHT22;2994;51.220;4.412;2023-03-23T17:56:28;16.69;65.11